VLG5YB LIRQ-LICC
Flight info
| Callsign | VLG5YB |
|---|---|
| Flight time | 1h 21m |
| Altitude | 19000 |
| Route | KUGIX L995 IBRID/N0442F370 DCT AMTEL DCT SOVAN DCT GIKIN DCT RIFFI DCT ENSOT DCT VAKOR DCT PELEN DCT UXUTA DCT LIBRO |
| Aircraft | A319/M-SDE3FGHIRWY/LB1 |
Departure
| Time | 2026-04-25 12:49 |
|---|---|
| Airport | Florence Airport, Peretola (LIRQ) |
Arrival
| Time | 2026-04-25 14:11 |
|---|---|
| Airport | Catania-Fontanarossa Airport (LICC) |
| Time | Latitude | Longitude | Altitude | Speed | Heading |
|---|---|---|---|---|---|
| 2026-04-25 12:46 | 43.80582 | 11.20001 | 132 ft | 0 kts | 11° |
| 2026-04-25 12:46 | 43.80640 | 11.20017 | 132 ft | 22 kts | 13° |
| 2026-04-25 12:47 | 43.80810 | 11.20203 | 131 ft | 41 kts | 50° |
| 2026-04-25 12:47 | 43.81034 | 11.20552 | 124 ft | 55 kts | 47° |
| 2026-04-25 12:47 | 43.81260 | 11.20942 | 134 ft | 33 kts | 79° |
| 2026-04-25 12:47 | 43.81271 | 11.21235 | 143 ft | 26 kts | 53° |
| 2026-04-25 12:48 | 43.81395 | 11.21380 | 144 ft | 7 kts | 359° |
| 2026-04-25 12:48 | 43.81397 | 11.21379 | 143 ft | 0 kts | 355° |
| 2026-04-25 12:48 | 43.81434 | 11.21366 | 140 ft | 13 kts | 345° |
| 2026-04-25 12:48 | 43.81498 | 11.21260 | 132 ft | 19 kts | 216° |
| 2026-04-25 12:49 | 43.81385 | 11.21095 | 133 ft | 47 kts | 228° |
| 2026-04-25 12:49 | 43.80933 | 11.20401 | 128 ft | 139 kts | 227° |
| 2026-04-25 12:49 | 43.80154 | 11.19249 | 479 ft | 175 kts | 219° |
| 2026-04-25 12:49 | 43.79006 | 11.18594 | 1351 ft | 188 kts | 187° |
| 2026-04-25 12:50 | 43.77634 | 11.18842 | 2210 ft | 210 kts | 158° |
| 2026-04-25 12:50 | 43.76407 | 11.20030 | 3195 ft | 219 kts | 131° |
| 2026-04-25 12:50 | 43.75673 | 11.21887 | 4227 ft | 226 kts | 105° |
| 2026-04-25 12:50 | 43.75580 | 11.24069 | 5313 ft | 230 kts | 79° |
| 2026-04-25 12:51 | 43.76168 | 11.26130 | 6423 ft | 232 kts | 55° |
| 2026-04-25 12:51 | 43.77124 | 11.27872 | 7664 ft | 227 kts | 57° |
| 2026-04-25 12:51 | 43.77701 | 11.30035 | 8141 ft | 259 kts | 94° |
| 2026-04-25 12:51 | 43.77110 | 11.32498 | 8726 ft | 279 kts | 118° |
| 2026-04-25 12:52 | 43.75899 | 11.34575 | 9810 ft | 281 kts | 143° |
| 2026-04-25 12:52 | 43.74227 | 11.36016 | 10818 ft | 286 kts | 153° |
| 2026-04-25 12:52 | 43.72420 | 11.37224 | 11837 ft | 290 kts | 156° |
| 2026-04-25 12:52 | 43.70530 | 11.38374 | 12548 ft | 307 kts | 157° |
| 2026-04-25 12:53 | 43.68508 | 11.39592 | 13339 ft | 316 kts | 157° |
| 2026-04-25 12:53 | 43.66484 | 11.40825 | 14296 ft | 320 kts | 156° |
| 2026-04-25 12:53 | 43.64461 | 11.42074 | 15179 ft | 324 kts | 156° |
| 2026-04-25 12:53 | 43.62393 | 11.43359 | 16074 ft | 329 kts | 156° |
| 2026-04-25 12:54 | 43.60228 | 11.44708 | 16580 ft | 347 kts | 156° |
| 2026-04-25 12:54 | 43.57961 | 11.46120 | 16868 ft | 368 kts | 156° |
| 2026-04-25 12:54 | 43.55597 | 11.47590 | 17581 ft | 374 kts | 156° |
| 2026-04-25 12:54 | 43.53219 | 11.49068 | 18358 ft | 379 kts | 156° |
| 2026-04-25 12:55 | 43.50787 | 11.50578 | 18830 ft | 383 kts | 156° |
| 2026-04-25 12:55 | 43.49175 | 11.51577 | 18941 ft | 384 kts | 156° |
| 2026-04-25 12:55 | 43.45912 | 11.53600 | 19000 ft | 386 kts | 156° |
| 2026-04-25 12:55 | 43.43501 | 11.55093 | 19001 ft | 385 kts | 156° |
| 2026-04-25 12:56 | 43.41050 | 11.56609 | 19001 ft | 385 kts | 156° |
| 2026-04-25 12:56 | 43.38608 | 11.58120 | 19000 ft | 384 kts | 156° |
| 2026-04-25 12:56 | 43.36168 | 11.59628 | 19000 ft | 385 kts | 156° |
| 2026-04-25 12:56 | 43.33730 | 11.61131 | 18999 ft | 385 kts | 156° |
| 2026-04-25 12:57 | 43.31283 | 11.62638 | 18999 ft | 385 kts | 156° |
| 2026-04-25 12:57 | 43.28844 | 11.64139 | 19001 ft | 385 kts | 156° |
| 2026-04-25 12:57 | 43.26399 | 11.65642 | 19000 ft | 384 kts | 156° |
| 2026-04-25 12:57 | 43.23964 | 11.67137 | 19000 ft | 384 kts | 156° |
| 2026-04-25 12:58 | 43.21520 | 11.68636 | 19002 ft | 386 kts | 156° |
| 2026-04-25 12:58 | 43.19076 | 11.70135 | 19000 ft | 385 kts | 156° |
| 2026-04-25 12:58 | 43.16631 | 11.71633 | 19001 ft | 385 kts | 156° |
| 2026-04-25 12:58 | 43.14187 | 11.73128 | 18999 ft | 385 kts | 156° |
| 2026-04-25 12:59 | 43.11739 | 11.74624 | 19001 ft | 385 kts | 156° |
| 2026-04-25 12:59 | 43.09293 | 11.76119 | 19000 ft | 384 kts | 156° |
| 2026-04-25 12:59 | 43.06850 | 11.77610 | 19000 ft | 386 kts | 156° |
| 2026-04-25 12:59 | 43.04403 | 11.79102 | 19000 ft | 386 kts | 156° |
| 2026-04-25 13:00 | 43.02745 | 11.80113 | 19000 ft | 385 kts | 156° |
| 2026-04-25 13:00 | 43.01124 | 11.81101 | 18999 ft | 385 kts | 156° |
| 2026-04-25 13:00 | 42.97043 | 11.83583 | 19000 ft | 386 kts | 156° |
| 2026-04-25 13:00 | 42.94587 | 11.85076 | 19000 ft | 386 kts | 156° |
| 2026-04-25 13:01 | 42.92675 | 11.86237 | 19000 ft | 386 kts | 156° |
| 2026-04-25 13:01 | 42.90216 | 11.87729 | 19000 ft | 387 kts | 156° |
| 2026-04-25 13:01 | 42.87760 | 11.89218 | 18999 ft | 385 kts | 156° |
| 2026-04-25 13:01 | 42.85308 | 11.90703 | 19001 ft | 387 kts | 156° |
| 2026-04-25 13:02 | 42.82855 | 11.92187 | 19000 ft | 386 kts | 156° |
| 2026-04-25 13:02 | 42.80403 | 11.93670 | 19000 ft | 385 kts | 156° |
| 2026-04-25 13:02 | 42.77958 | 11.95147 | 18999 ft | 385 kts | 156° |
| 2026-04-25 13:02 | 42.75508 | 11.96626 | 18999 ft | 384 kts | 156° |
| 2026-04-25 13:03 | 42.73066 | 11.98098 | 19000 ft | 386 kts | 156° |
| 2026-04-25 13:03 | 42.70613 | 11.99576 | 19000 ft | 385 kts | 156° |
| 2026-04-25 13:03 | 42.68161 | 12.01053 | 19000 ft | 385 kts | 156° |
| 2026-04-25 13:03 | 42.65717 | 12.02523 | 19000 ft | 386 kts | 156° |
| 2026-04-25 13:04 | 42.63256 | 12.04003 | 19000 ft | 385 kts | 156° |
| 2026-04-25 13:04 | 42.60748 | 12.05251 | 19002 ft | 385 kts | 165° |
| 2026-04-25 13:04 | 42.58149 | 12.06196 | 19000 ft | 385 kts | 166° |
| 2026-04-25 13:04 | 42.55562 | 12.07106 | 19001 ft | 385 kts | 166° |
| 2026-04-25 13:05 | 42.52974 | 12.08010 | 19001 ft | 384 kts | 166° |
| 2026-04-25 13:05 | 42.50387 | 12.08917 | 18999 ft | 384 kts | 166° |
| 2026-04-25 13:05 | 42.47799 | 12.09827 | 19000 ft | 384 kts | 166° |
| 2026-04-25 13:05 | 42.45213 | 12.10739 | 19001 ft | 384 kts | 166° |
| 2026-04-25 13:06 | 42.42632 | 12.11649 | 19000 ft | 384 kts | 166° |
| 2026-04-25 13:06 | 42.40039 | 12.12563 | 19001 ft | 384 kts | 166° |
| 2026-04-25 13:06 | 42.37450 | 12.13475 | 18999 ft | 385 kts | 166° |
| 2026-04-25 13:06 | 42.34850 | 12.14390 | 19000 ft | 386 kts | 166° |
| 2026-04-25 13:07 | 42.32260 | 12.15300 | 18999 ft | 385 kts | 166° |
| 2026-04-25 13:07 | 42.29669 | 12.16210 | 19000 ft | 385 kts | 166° |
| 2026-04-25 13:07 | 42.27075 | 12.17121 | 18999 ft | 385 kts | 166° |
| 2026-04-25 13:07 | 42.24490 | 12.18028 | 19000 ft | 384 kts | 166° |
| 2026-04-25 13:08 | 42.22773 | 12.18630 | 19001 ft | 384 kts | 166° |
| 2026-04-25 13:08 | 42.19331 | 12.19836 | 18999 ft | 385 kts | 166° |
| 2026-04-25 13:08 | 42.16741 | 12.20742 | 19000 ft | 384 kts | 166° |
| 2026-04-25 13:08 | 42.14157 | 12.21646 | 19000 ft | 383 kts | 166° |
| 2026-04-25 13:09 | 42.12245 | 12.22314 | 19000 ft | 383 kts | 166° |
| 2026-04-25 13:09 | 42.09662 | 12.23215 | 19000 ft | 383 kts | 166° |
| 2026-04-25 13:09 | 42.07086 | 12.24114 | 19001 ft | 383 kts | 166° |
| 2026-04-25 13:09 | 42.04499 | 12.25015 | 19000 ft | 384 kts | 166° |
| 2026-04-25 13:10 | 42.02792 | 12.25609 | 19000 ft | 383 kts | 166° |
| 2026-04-25 13:10 | 42.00209 | 12.26508 | 19000 ft | 383 kts | 166° |
| 2026-04-25 13:10 | 41.97632 | 12.27404 | 19000 ft | 383 kts | 166° |
| 2026-04-25 13:10 | 41.95050 | 12.28301 | 19000 ft | 383 kts | 166° |
| 2026-04-25 13:11 | 41.92476 | 12.29195 | 19001 ft | 382 kts | 166° |
| 2026-04-25 13:11 | 41.89900 | 12.30088 | 19000 ft | 383 kts | 166° |
| 2026-04-25 13:11 | 41.87319 | 12.30983 | 19001 ft | 383 kts | 166° |
| 2026-04-25 13:11 | 41.84750 | 12.31872 | 19001 ft | 382 kts | 166° |
| 2026-04-25 13:12 | 41.82167 | 12.32765 | 19001 ft | 382 kts | 166° |
| 2026-04-25 13:12 | 41.79589 | 12.33657 | 19000 ft | 382 kts | 166° |
| 2026-04-25 13:12 | 41.77014 | 12.34546 | 19000 ft | 382 kts | 166° |
| 2026-04-25 13:12 | 41.75274 | 12.35146 | 19000 ft | 382 kts | 166° |
| 2026-04-25 13:13 | 41.71860 | 12.36324 | 19001 ft | 382 kts | 166° |
| 2026-04-25 13:13 | 41.69283 | 12.37211 | 18999 ft | 382 kts | 166° |
| 2026-04-25 13:13 | 41.66710 | 12.38097 | 19000 ft | 382 kts | 166° |
| 2026-04-25 13:13 | 41.64135 | 12.38983 | 19001 ft | 382 kts | 166° |
| 2026-04-25 13:14 | 41.61555 | 12.39869 | 19000 ft | 382 kts | 166° |
| 2026-04-25 13:14 | 41.58978 | 12.40754 | 19001 ft | 382 kts | 166° |
| 2026-04-25 13:14 | 41.56400 | 12.41639 | 19001 ft | 382 kts | 166° |
| 2026-04-25 13:14 | 41.53830 | 12.42519 | 19001 ft | 382 kts | 166° |
| 2026-04-25 13:15 | 41.51248 | 12.43404 | 19000 ft | 382 kts | 166° |
| 2026-04-25 13:15 | 41.48673 | 12.44285 | 19000 ft | 382 kts | 166° |
| 2026-04-25 13:15 | 41.46100 | 12.45165 | 19000 ft | 382 kts | 166° |
| 2026-04-25 13:15 | 41.43521 | 12.46046 | 19001 ft | 382 kts | 166° |
| 2026-04-25 13:16 | 41.40945 | 12.46925 | 19000 ft | 382 kts | 166° |
| 2026-04-25 13:16 | 41.38364 | 12.47806 | 19000 ft | 382 kts | 166° |
| 2026-04-25 13:16 | 41.35790 | 12.48683 | 19001 ft | 382 kts | 166° |
| 2026-04-25 13:16 | 41.33214 | 12.49560 | 19001 ft | 382 kts | 166° |
| 2026-04-25 13:17 | 41.30636 | 12.50438 | 19000 ft | 382 kts | 166° |
| 2026-04-25 13:17 | 41.28056 | 12.51315 | 19001 ft | 382 kts | 166° |
| 2026-04-25 13:17 | 41.25478 | 12.52191 | 19000 ft | 382 kts | 166° |
| 2026-04-25 13:17 | 41.22905 | 12.53083 | 19000 ft | 382 kts | 162° |
| 2026-04-25 13:18 | 41.20454 | 12.54456 | 19000 ft | 383 kts | 154° |
| 2026-04-25 13:18 | 41.18068 | 12.56027 | 18999 ft | 383 kts | 153° |
| 2026-04-25 13:18 | 41.15706 | 12.57636 | 19000 ft | 383 kts | 153° |
| 2026-04-25 13:18 | 41.13329 | 12.59253 | 19000 ft | 383 kts | 153° |
| 2026-04-25 13:19 | 41.10961 | 12.60849 | 19000 ft | 383 kts | 153° |
| 2026-04-25 13:19 | 41.08586 | 12.62436 | 19000 ft | 383 kts | 153° |
| 2026-04-25 13:19 | 41.06202 | 12.64020 | 19000 ft | 383 kts | 153° |
| 2026-04-25 13:19 | 41.04621 | 12.65068 | 19000 ft | 383 kts | 154° |
| 2026-04-25 13:20 | 41.01437 | 12.67176 | 19000 ft | 383 kts | 154° |
| 2026-04-25 13:20 | 40.99055 | 12.68751 | 19000 ft | 383 kts | 154° |
| 2026-04-25 13:20 | 40.96672 | 12.70325 | 19000 ft | 383 kts | 154° |
| 2026-04-25 13:20 | 40.94292 | 12.71896 | 19000 ft | 383 kts | 154° |
| 2026-04-25 13:21 | 40.91908 | 12.73469 | 19000 ft | 383 kts | 154° |
| 2026-04-25 13:21 | 40.89524 | 12.75040 | 18999 ft | 383 kts | 154° |
| 2026-04-25 13:21 | 40.87142 | 12.76610 | 19000 ft | 383 kts | 154° |
| 2026-04-25 13:21 | 40.84760 | 12.78177 | 19000 ft | 383 kts | 154° |
| 2026-04-25 13:22 | 40.82379 | 12.79743 | 19000 ft | 383 kts | 154° |
| 2026-04-25 13:22 | 40.79998 | 12.81308 | 19000 ft | 383 kts | 154° |
| 2026-04-25 13:22 | 40.77610 | 12.82876 | 19000 ft | 383 kts | 154° |
| 2026-04-25 13:23 | 40.72840 | 12.86004 | 19000 ft | 383 kts | 154° |
| 2026-04-25 13:23 | 40.70455 | 12.87566 | 19000 ft | 383 kts | 154° |
| 2026-04-25 13:23 | 40.68072 | 12.89127 | 19000 ft | 383 kts | 154° |
| 2026-04-25 13:23 | 40.65686 | 12.90687 | 19000 ft | 383 kts | 154° |
| 2026-04-25 13:24 | 40.63300 | 12.92246 | 19000 ft | 383 kts | 154° |
| 2026-04-25 13:24 | 40.60914 | 12.93804 | 19000 ft | 383 kts | 154° |
| 2026-04-25 13:24 | 40.58529 | 12.95360 | 19000 ft | 383 kts | 154° |
| 2026-04-25 13:24 | 40.56175 | 12.96895 | 19000 ft | 383 kts | 154° |
| 2026-04-25 13:25 | 40.53791 | 12.98448 | 19000 ft | 383 kts | 154° |
| 2026-04-25 13:25 | 40.51386 | 13.00048 | 19000 ft | 383 kts | 152° |
| 2026-04-25 13:25 | 40.49041 | 13.01702 | 19000 ft | 383 kts | 152° |
| 2026-04-25 13:25 | 40.46699 | 13.03381 | 19000 ft | 383 kts | 152° |
| 2026-04-25 13:26 | 40.44363 | 13.05052 | 19000 ft | 383 kts | 152° |
| 2026-04-25 13:26 | 40.42018 | 13.06718 | 19000 ft | 383 kts | 152° |
| 2026-04-25 13:26 | 40.39677 | 13.08372 | 19000 ft | 383 kts | 152° |
| 2026-04-25 13:26 | 40.37338 | 13.10020 | 19000 ft | 383 kts | 152° |
| 2026-04-25 13:27 | 40.34984 | 13.11674 | 19000 ft | 383 kts | 152° |
| 2026-04-25 13:27 | 40.32637 | 13.13322 | 18999 ft | 383 kts | 152° |
| 2026-04-25 13:27 | 40.30288 | 13.14969 | 19000 ft | 383 kts | 152° |
| 2026-04-25 13:27 | 40.27943 | 13.16613 | 19000 ft | 383 kts | 152° |
| 2026-04-25 13:28 | 40.25593 | 13.18258 | 19000 ft | 383 kts | 152° |
| 2026-04-25 13:28 | 40.24039 | 13.19346 | 19000 ft | 383 kts | 152° |
| 2026-04-25 13:28 | 40.20893 | 13.21546 | 19000 ft | 383 kts | 152° |
| 2026-04-25 13:28 | 40.18545 | 13.23186 | 19000 ft | 383 kts | 152° |
| 2026-04-25 13:29 | 40.16196 | 13.24827 | 19000 ft | 383 kts | 152° |
| 2026-04-25 13:29 | 40.13849 | 13.26464 | 19000 ft | 383 kts | 152° |
| 2026-04-25 13:29 | 40.11498 | 13.28103 | 19000 ft | 383 kts | 152° |
| 2026-04-25 13:30 | 40.06800 | 13.31374 | 19000 ft | 383 kts | 152° |
| 2026-04-25 13:30 | 40.04448 | 13.33009 | 19000 ft | 383 kts | 152° |
| 2026-04-25 13:30 | 40.02099 | 13.34641 | 19000 ft | 383 kts | 152° |
| 2026-04-25 13:31 | 39.97396 | 13.37906 | 19000 ft | 383 kts | 152° |
| 2026-04-25 13:31 | 39.95045 | 13.39535 | 19000 ft | 383 kts | 152° |
| 2026-04-25 13:31 | 39.92695 | 13.41163 | 19000 ft | 383 kts | 152° |
| 2026-04-25 13:31 | 39.90346 | 13.42789 | 19000 ft | 383 kts | 152° |
| 2026-04-25 13:32 | 39.87995 | 13.44415 | 19000 ft | 383 kts | 152° |
| 2026-04-25 13:32 | 39.85641 | 13.46042 | 19000 ft | 383 kts | 152° |
| 2026-04-25 13:32 | 39.83286 | 13.47668 | 19000 ft | 383 kts | 152° |
| 2026-04-25 13:32 | 39.80933 | 13.49291 | 19000 ft | 383 kts | 152° |
| 2026-04-25 13:33 | 39.78584 | 13.50911 | 19000 ft | 383 kts | 152° |
| 2026-04-25 13:33 | 39.76228 | 13.52534 | 19000 ft | 383 kts | 152° |
| 2026-04-25 13:33 | 39.73879 | 13.54151 | 19000 ft | 383 kts | 152° |
| 2026-04-25 13:33 | 39.72319 | 13.55224 | 19000 ft | 383 kts | 152° |
| 2026-04-25 13:34 | 39.69171 | 13.57388 | 19000 ft | 383 kts | 152° |
| 2026-04-25 13:34 | 39.66813 | 13.59007 | 19000 ft | 383 kts | 152° |
| 2026-04-25 13:34 | 39.64464 | 13.60619 | 19000 ft | 383 kts | 152° |
| 2026-04-25 13:34 | 39.62112 | 13.62232 | 19000 ft | 383 kts | 152° |
| 2026-04-25 13:35 | 39.59755 | 13.63847 | 19000 ft | 383 kts | 152° |
| 2026-04-25 13:35 | 39.57397 | 13.65462 | 19000 ft | 383 kts | 152° |
| 2026-04-25 13:35 | 39.55047 | 13.67069 | 19000 ft | 383 kts | 152° |
| 2026-04-25 13:35 | 39.52688 | 13.68681 | 19000 ft | 383 kts | 152° |
| 2026-04-25 13:36 | 39.50335 | 13.70289 | 19000 ft | 383 kts | 152° |
| 2026-04-25 13:36 | 39.47980 | 13.71896 | 19000 ft | 383 kts | 152° |
| 2026-04-25 13:36 | 39.45626 | 13.73501 | 19000 ft | 383 kts | 152° |
| 2026-04-25 13:36 | 39.43266 | 13.75110 | 19000 ft | 383 kts | 152° |
| 2026-04-25 13:37 | 39.40910 | 13.76714 | 19000 ft | 383 kts | 152° |
| 2026-04-25 13:37 | 39.38559 | 13.78313 | 19000 ft | 383 kts | 152° |
| 2026-04-25 13:37 | 39.36199 | 13.79918 | 19000 ft | 383 kts | 152° |
| 2026-04-25 13:37 | 39.33840 | 13.81521 | 19000 ft | 383 kts | 152° |
| 2026-04-25 13:38 | 39.31486 | 13.83119 | 19000 ft | 383 kts | 152° |
| 2026-04-25 13:38 | 39.29130 | 13.84716 | 19000 ft | 383 kts | 152° |
| 2026-04-25 13:38 | 39.26769 | 13.86317 | 19000 ft | 383 kts | 152° |
| 2026-04-25 13:38 | 39.24415 | 13.87911 | 19000 ft | 383 kts | 152° |
| 2026-04-25 13:39 | 39.22085 | 13.89488 | 19000 ft | 383 kts | 152° |
| 2026-04-25 13:39 | 39.19698 | 13.91102 | 19000 ft | 383 kts | 152° |
| 2026-04-25 13:39 | 39.17340 | 13.92696 | 19000 ft | 383 kts | 153° |
| 2026-04-25 13:39 | 39.15012 | 13.94268 | 19000 ft | 383 kts | 153° |
| 2026-04-25 13:40 | 39.12621 | 13.95881 | 19000 ft | 383 kts | 153° |
| 2026-04-25 13:40 | 39.10265 | 13.97469 | 19000 ft | 383 kts | 153° |
| 2026-04-25 13:40 | 39.07932 | 13.99041 | 19000 ft | 383 kts | 153° |
| 2026-04-25 13:40 | 39.05575 | 14.00628 | 19000 ft | 383 kts | 153° |
| 2026-04-25 13:41 | 39.03191 | 14.02232 | 19000 ft | 383 kts | 153° |
| 2026-04-25 13:41 | 39.00823 | 14.03823 | 19000 ft | 383 kts | 153° |
| 2026-04-25 13:41 | 38.98465 | 14.05407 | 19000 ft | 383 kts | 153° |
| 2026-04-25 13:41 | 38.96102 | 14.06993 | 19000 ft | 383 kts | 153° |
| 2026-04-25 13:42 | 38.93741 | 14.08576 | 19000 ft | 383 kts | 153° |
| 2026-04-25 13:42 | 38.91385 | 14.10155 | 19000 ft | 383 kts | 153° |
| 2026-04-25 13:42 | 38.89023 | 14.11737 | 19000 ft | 383 kts | 153° |
| 2026-04-25 13:42 | 38.86664 | 14.13316 | 19000 ft | 383 kts | 153° |
| 2026-04-25 13:43 | 38.84302 | 14.14897 | 19000 ft | 383 kts | 153° |
| 2026-04-25 13:43 | 38.81869 | 14.16283 | 19002 ft | 383 kts | 157° |
| 2026-04-25 13:43 | 38.79449 | 14.17706 | 19001 ft | 383 kts | 154° |
| 2026-04-25 13:43 | 38.77059 | 14.19198 | 19000 ft | 383 kts | 154° |
| 2026-04-25 13:44 | 38.74664 | 14.20694 | 19000 ft | 383 kts | 154° |
| 2026-04-25 13:44 | 38.72261 | 14.22173 | 19000 ft | 383 kts | 155° |
| 2026-04-25 13:44 | 38.69860 | 14.23633 | 19000 ft | 383 kts | 155° |
| 2026-04-25 13:44 | 38.67455 | 14.25083 | 19000 ft | 383 kts | 155° |
| 2026-04-25 13:45 | 38.65046 | 14.26530 | 19000 ft | 383 kts | 155° |
| 2026-04-25 13:45 | 38.62630 | 14.27979 | 19000 ft | 383 kts | 155° |
| 2026-04-25 13:45 | 38.60219 | 14.29423 | 19000 ft | 383 kts | 155° |
| 2026-04-25 13:45 | 38.57808 | 14.30867 | 18999 ft | 383 kts | 155° |
| 2026-04-25 13:46 | 38.55404 | 14.32306 | 19000 ft | 383 kts | 155° |
| 2026-04-25 13:46 | 38.52987 | 14.33751 | 19000 ft | 383 kts | 155° |
| 2026-04-25 13:46 | 38.50576 | 14.35192 | 19000 ft | 383 kts | 155° |
| 2026-04-25 13:46 | 38.48166 | 14.36631 | 19000 ft | 383 kts | 155° |
| 2026-04-25 13:47 | 38.45751 | 14.38073 | 19000 ft | 383 kts | 155° |
| 2026-04-25 13:47 | 38.43339 | 14.39511 | 19000 ft | 383 kts | 155° |
| 2026-04-25 13:47 | 38.40929 | 14.40947 | 19000 ft | 383 kts | 155° |
| 2026-04-25 13:47 | 38.38523 | 14.42380 | 19000 ft | 383 kts | 155° |
| 2026-04-25 13:48 | 38.36103 | 14.43820 | 19000 ft | 383 kts | 155° |
| 2026-04-25 13:48 | 38.34507 | 14.44769 | 19000 ft | 383 kts | 155° |
| 2026-04-25 13:48 | 38.31278 | 14.46689 | 19000 ft | 383 kts | 155° |
| 2026-04-25 13:48 | 38.28866 | 14.48121 | 19000 ft | 383 kts | 155° |
| 2026-04-25 13:49 | 38.26453 | 14.49554 | 19000 ft | 383 kts | 155° |
| 2026-04-25 13:49 | 38.24039 | 14.50986 | 19000 ft | 383 kts | 155° |
| 2026-04-25 13:49 | 38.21628 | 14.52415 | 19000 ft | 383 kts | 155° |
| 2026-04-25 13:49 | 38.19217 | 14.53844 | 19000 ft | 383 kts | 155° |
| 2026-04-25 13:50 | 38.17616 | 14.54792 | 19000 ft | 383 kts | 155° |
| 2026-04-25 13:50 | 38.15201 | 14.56220 | 19000 ft | 383 kts | 155° |
| 2026-04-25 13:50 | 38.12794 | 14.57643 | 19002 ft | 383 kts | 155° |
| 2026-04-25 13:50 | 38.10373 | 14.59074 | 18830 ft | 383 kts | 155° |
| 2026-04-25 13:51 | 38.07187 | 14.60955 | 18498 ft | 380 kts | 155° |
| 2026-04-25 13:51 | 38.04797 | 14.62364 | 18244 ft | 379 kts | 155° |
| 2026-04-25 13:51 | 38.03181 | 14.63317 | 18080 ft | 379 kts | 155° |
| 2026-04-25 13:51 | 38.00014 | 14.65182 | 17747 ft | 379 kts | 155° |
| 2026-04-25 13:52 | 37.98396 | 14.66135 | 17577 ft | 379 kts | 155° |
| 2026-04-25 13:52 | 37.95964 | 14.67414 | 17287 ft | 379 kts | 165° |
| 2026-04-25 13:52 | 37.93368 | 14.67807 | 16869 ft | 375 kts | 183° |
| 2026-04-25 13:52 | 37.90825 | 14.67201 | 16369 ft | 370 kts | 195° |
| 2026-04-25 13:53 | 37.88362 | 14.66617 | 16083 ft | 351 kts | 187° |
| 2026-04-25 13:53 | 37.85965 | 14.66318 | 15541 ft | 342 kts | 185° |
| 2026-04-25 13:53 | 37.83616 | 14.66073 | 14913 ft | 336 kts | 185° |
| 2026-04-25 13:53 | 37.81307 | 14.65805 | 14249 ft | 332 kts | 186° |
| 2026-04-25 13:54 | 37.79026 | 14.65498 | 13573 ft | 328 kts | 187° |
| 2026-04-25 13:54 | 37.76777 | 14.65163 | 12900 ft | 324 kts | 187° |
| 2026-04-25 13:54 | 37.74545 | 14.64823 | 12224 ft | 321 kts | 187° |
| 2026-04-25 13:54 | 37.72339 | 14.64490 | 11550 ft | 318 kts | 187° |
| 2026-04-25 13:55 | 37.70154 | 14.64164 | 10877 ft | 315 kts | 187° |
| 2026-04-25 13:55 | 37.67984 | 14.63842 | 10200 ft | 312 kts | 187° |
| 2026-04-25 13:55 | 37.65831 | 14.63524 | 9518 ft | 310 kts | 187° |
| 2026-04-25 13:55 | 37.63701 | 14.63211 | 8848 ft | 307 kts | 187° |
| 2026-04-25 13:56 | 37.61640 | 14.62765 | 8180 ft | 303 kts | 200° |
| 2026-04-25 13:56 | 37.59840 | 14.61390 | 7494 ft | 299 kts | 225° |
| 2026-04-25 13:56 | 37.58712 | 14.59235 | 6827 ft | 296 kts | 251° |
| 2026-04-25 13:56 | 37.58435 | 14.56737 | 6168 ft | 293 kts | 276° |
| 2026-04-25 13:57 | 37.59055 | 14.54326 | 5486 ft | 290 kts | 302° |
| 2026-04-25 13:57 | 37.59925 | 14.53023 | 5029 ft | 289 kts | 320° |
| 2026-04-25 13:57 | 37.62285 | 14.51574 | 4206 ft | 284 kts | 338° |
| 2026-04-25 13:57 | 37.63843 | 14.50199 | 3969 ft | 266 kts | 309° |
| 2026-04-25 13:58 | 37.64654 | 14.48144 | 3919 ft | 266 kts | 281° |
| 2026-04-25 13:58 | 37.64592 | 14.45841 | 3924 ft | 265 kts | 253° |
| 2026-04-25 13:58 | 37.63668 | 14.43849 | 3910 ft | 266 kts | 224° |
| 2026-04-25 13:58 | 37.62099 | 14.42654 | 3916 ft | 266 kts | 195° |
| 2026-04-25 13:59 | 37.60240 | 14.42413 | 3920 ft | 266 kts | 179° |
| 2026-04-25 13:59 | 37.58393 | 14.42580 | 3919 ft | 266 kts | 173° |
| 2026-04-25 13:59 | 37.56559 | 14.42881 | 3956 ft | 265 kts | 172° |
| 2026-04-25 13:59 | 37.54733 | 14.43209 | 4191 ft | 267 kts | 172° |
| 2026-04-25 14:00 | 37.52925 | 14.43528 | 4364 ft | 262 kts | 172° |
| 2026-04-25 14:00 | 37.51152 | 14.43828 | 4417 ft | 245 kts | 173° |
| 2026-04-25 14:00 | 37.49508 | 14.44097 | 4417 ft | 236 kts | 173° |
| 2026-04-25 14:00 | 37.47885 | 14.44357 | 4415 ft | 230 kts | 173° |
| 2026-04-25 14:01 | 37.46364 | 14.44600 | 4417 ft | 217 kts | 173° |
| 2026-04-25 14:01 | 37.44854 | 14.44841 | 4418 ft | 216 kts | 173° |
| 2026-04-25 14:01 | 37.43370 | 14.45110 | 4413 ft | 216 kts | 164° |
| 2026-04-25 14:01 | 37.42115 | 14.46101 | 4422 ft | 218 kts | 128° |
| 2026-04-25 14:02 | 37.41539 | 14.47821 | 4419 ft | 217 kts | 92° |
| 2026-04-25 14:02 | 37.41644 | 14.49696 | 4414 ft | 217 kts | 82° |
| 2026-04-25 14:02 | 37.41852 | 14.51570 | 4419 ft | 216 kts | 81° |
| 2026-04-25 14:02 | 37.41993 | 14.52835 | 4418 ft | 216 kts | 82° |
| 2026-04-25 14:03 | 37.42249 | 14.55326 | 4419 ft | 217 kts | 83° |
| 2026-04-25 14:03 | 37.42433 | 14.57200 | 4422 ft | 217 kts | 81° |
| 2026-04-25 14:03 | 37.42657 | 14.59062 | 4419 ft | 217 kts | 81° |
| 2026-04-25 14:03 | 37.42856 | 14.60957 | 4418 ft | 217 kts | 83° |
| 2026-04-25 14:04 | 37.43018 | 14.62835 | 4419 ft | 216 kts | 84° |
| 2026-04-25 14:04 | 37.43174 | 14.64719 | 4418 ft | 217 kts | 84° |
| 2026-04-25 14:04 | 37.43332 | 14.66602 | 4417 ft | 216 kts | 84° |
| 2026-04-25 14:04 | 37.43470 | 14.68252 | 4421 ft | 216 kts | 84° |
| 2026-04-25 14:05 | 37.43627 | 14.70134 | 4419 ft | 216 kts | 84° |
| 2026-04-25 14:05 | 37.43784 | 14.72014 | 4418 ft | 216 kts | 84° |
| 2026-04-25 14:05 | 37.43941 | 14.73899 | 4417 ft | 216 kts | 84° |
| 2026-04-25 14:05 | 37.44098 | 14.75779 | 4417 ft | 216 kts | 84° |
| 2026-04-25 14:06 | 37.44254 | 14.77660 | 4356 ft | 217 kts | 84° |
| 2026-04-25 14:06 | 37.44414 | 14.79555 | 4098 ft | 219 kts | 84° |
| 2026-04-25 14:06 | 37.44575 | 14.81475 | 3789 ft | 223 kts | 84° |
| 2026-04-25 14:06 | 37.44738 | 14.83426 | 3478 ft | 224 kts | 84° |
| 2026-04-25 14:07 | 37.44898 | 14.85347 | 3176 ft | 217 kts | 84° |
| 2026-04-25 14:07 | 37.45053 | 14.87191 | 2888 ft | 207 kts | 84° |
| 2026-04-25 14:07 | 37.45201 | 14.88968 | 2609 ft | 201 kts | 84° |
| 2026-04-25 14:07 | 37.45343 | 14.90684 | 2341 ft | 194 kts | 84° |
| 2026-04-25 14:08 | 37.45482 | 14.92332 | 2095 ft | 185 kts | 84° |
| 2026-04-25 14:08 | 37.45612 | 14.93901 | 1896 ft | 175 kts | 84° |
| 2026-04-25 14:08 | 37.45736 | 14.95373 | 1641 ft | 163 kts | 84° |
| 2026-04-25 14:08 | 37.45850 | 14.96728 | 1439 ft | 147 kts | 84° |
| 2026-04-25 14:09 | 37.45949 | 14.97920 | 1241 ft | 129 kts | 84° |
| 2026-04-25 14:09 | 37.46045 | 14.99067 | 1075 ft | 130 kts | 84° |
| 2026-04-25 14:09 | 37.46139 | 15.00193 | 899 ft | 129 kts | 84° |
| 2026-04-25 14:09 | 37.46180 | 15.00686 | 828 ft | 129 kts | 84° |
| 2026-04-25 14:10 | 37.46273 | 15.02184 | 642 ft | 130 kts | 80° |
| 2026-04-25 14:10 | 37.46413 | 15.03294 | 429 ft | 128 kts | 83° |
| 2026-04-25 14:10 | 37.46493 | 15.04408 | 240 ft | 127 kts | 84° |
| 2026-04-25 14:10 | 37.46582 | 15.05508 | 60 ft | 124 kts | 84° |
| 2026-04-25 14:11 | 37.46666 | 15.06468 | 35 ft | 79 kts | 83° |
| 2026-04-25 14:11 | 37.46699 | 15.06850 | 36 ft | 36 kts | 83° |
| 2026-04-25 14:11 | 37.46793 | 15.06905 | 33 ft | 0 kts | 333° |
| 2026-04-25 14:11 | 37.46795 | 15.06903 | 33 ft | 2 kts | 333° |
| 2026-04-25 14:12 | 37.46797 | 15.06903 | 33 ft | 0 kts | 333° |
| 2026-04-25 14:14 | 37.46797 | 15.06902 | 33 ft | 1 kts | 333° |
| 2026-04-25 14:14 | 37.46808 | 15.06895 | 31 ft | 3 kts | 333° |
| 2026-04-25 14:15 | 37.46849 | 15.06862 | 32 ft | 10 kts | 309° |
| 2026-04-25 14:15 | 37.46857 | 15.06831 | 32 ft | 12 kts | 277° |
| 2026-04-25 14:15 | 37.46859 | 15.06606 | 31 ft | 11 kts | 329° |
| 2026-04-25 14:15 | 37.46915 | 15.06621 | 32 ft | 0 kts | 18° |
| 2026-04-25 14:16 | 37.46921 | 15.06623 | 32 ft | 0 kts | 18° |